Clovis, CA

3:16 PM PST on February 10, 2016 (GMT -0800)
NW Clovis, CA 93619 | | Change Station
CLOSE
Current Station
Personal Weather Station
Location: Clovis, CA
Elevation: 374 ft
Nearby Weather Stations

Elev 374 ft 36.86 °N, 119.71 °W | Updated 1 minute ago

Partly Cloudy
Partly Cloudy
74.0 °F
Feels Like 77 °F
N
2.0
Wind Variable Wind from West
Gusts 3.0 mph

Today
High -- | Low -- °F
--% Chance of Precip.
Yesterday
High -- | Low -- °F
Precip. -- in
Pressure 30.17 in
Visibility 8.0 miles
Clouds Scattered Clouds 20000 ft
Heat Index 77 °F
Dew Point 56 °F
Humidity 53%
Rainfall 0.00 in
Snow Depth Not available.
6:53 AM 5:33 PM
Waxing Crescent, 8% visible
METAR KFAT 102253Z 32005KT 8SM SCT200 22/09 A3017 RMK AO2 SLP216 T02220089
Pressure 30.17 in
Visibility 8.0 miles
Clouds Scattered Clouds 20000 ft
Heat Index 77 °F
Dew Point 56 °F
Humidity 53%
Rainfall 0.00 in
Snow Depth Not available.
6:53 AM 5:33 PM
Waxing Crescent, 8% visible
METAR KFAT 102253Z 32005KT 8SM SCT200 22/09 A3017 RMK AO2 SLP216 T02220089

10-Day Weather Forecast

Almanac

Astronomy

Feb. 10, 2016 Rise Set
Actual Time
Civil Twilight
Nautical Twilight
Astronomical Twilight
Moon
Length of Visible Light
Length of Day
Tomorrow will be .
, % of the Moon is Illuminated

Today's Extremes

State Highs State Lows

Community

WunderPhotos

Upload Photos

1,891,933 photos uploaded!

WunderBlog® & News

Nearby

Air Quality

  Air Quality AQ Index Pollutant
Not available.

Snow Depth

Station Depth Elevation

Earthquake Activity

City Distance Mag. Time & Date
Minimum magnitude displayed is 2.5.

Coastal Water Temperatures

Place Temperature

Stations

Nearby Weather Stations

Station Location Temp. Windchill Dew Point Humidity Wind Precip. Elev Updated Type
                   

Watches & Warnings

There are currently no watches in effect.